Time;durP1;ratioP1;P1;durP2;ratioP2;P2;SDS_P1;SDS_P2;PMS_P1;PMS_P2;Temp;Humidity;BMP_temperature;BMP_pressure;BME280_temperature;BME280_humidity;BME280_pressure;Samples;Min_cycle;Max_cycle;Signal;HPM_P1;HPM_P2
2024/01/10 00:01:08;;;;;;;19.90;12.93;;;-3.40;99.90;;;;;;5012156;28;20551;-69
2024/01/10 00:03:33;;;;;;;19.50;12.63;;;-3.40;99.90;;;;;;5019839;28;20039;-69
2024/01/10 00:05:59;;;;;;;23.27;12.40;;;-3.40;99.90;;;;;;5011970;28;20086;-69
2024/01/10 00:08:25;;;;;;;20.47;13.00;;;-3.40;99.90;;;;;;5014731;28;20034;-69
2024/01/10 00:10:54;;;;;;;25.13;13.87;;;-3.40;99.90;;;;;;5004906;28;20523;-69
2024/01/10 00:13:20;;;;;;;21.97;13.20;;;-3.50;99.90;;;;;;5008958;28;20095;-69
2024/01/10 00:15:45;;;;;;;22.27;12.50;;;-3.40;99.90;;;;;;5012280;28;20129;-69
2024/01/10 00:18:11;;;;;;;23.77;12.60;;;-3.40;99.90;;;;;;5014478;28;20144;-69
2024/01/10 00:20:36;;;;;;;21.50;12.00;;;-3.40;99.90;;;;;;5014117;28;20049;-69
2024/01/10 00:23:02;;;;;;;19.27;12.73;;;-3.50;99.90;;;;;;5004034;28;20031;-70
2024/01/10 00:25:28;;;;;;;21.93;13.67;;;-3.40;99.90;;;;;;5012594;28;20288;-70
2024/01/10 00:27:53;;;;;;;22.33;12.67;;;-3.50;99.90;;;;;;5012031;28;20049;-69
2024/01/10 00:30:19;;;;;;;21.33;11.95;;;-3.50;99.90;;;;;;5012853;28;20419;-69
2024/01/10 00:32:44;;;;;;;18.37;11.50;;;-3.50;99.90;;;;;;5010480;28;20441;-69
2024/01/10 00:35:11;;;;;;;21.30;11.10;;;-3.50;99.90;;;;;;5013715;28;20514;-69
2024/01/10 00:37:36;;;;;;;20.73;12.30;;;-3.60;99.90;;;;;;5000861;28;20554;-69
2024/01/10 00:40:02;;;;;;;20.67;12.40;;;-3.50;99.90;;;;;;5013707;28;20317;-69
2024/01/10 00:42:28;;;;;;;19.53;11.67;;;-3.50;99.90;;;;;;5014896;28;20496;-69
2024/01/10 00:44:53;;;;;;;17.10;10.77;;;-3.60;99.90;;;;;;5012947;28;20033;-69
2024/01/10 00:47:19;;;;;;;25.43;11.83;;;-3.60;99.90;;;;;;5007810;28;20476;-69
2024/01/10 00:49:44;;;;;;;16.80;10.90;;;-3.60;99.90;;;;;;5007191;28;20491;-69
2024/01/10 00:52:10;;;;;;;17.70;11.47;;;-3.60;99.90;;;;;;5003418;28;20057;-69
2024/01/10 00:54:35;;;;;;;19.67;11.50;;;-3.50;99.90;;;;;;5012180;28;20077;-69
2024/01/10 00:57:01;;;;;;;19.70;11.93;;;-3.60;99.90;;;;;;5007280;28;20042;-69
2024/01/10 00:59:27;;;;;;;17.23;10.87;;;-3.60;99.90;;;;;;5012772;28;20104;-69
2024/01/10 01:01:52;;;;;;;19.43;11.37;;;-3.60;99.90;;;;;;5013522;28;20546;-69
2024/01/10 01:04:18;;;;;;;18.57;11.43;;;-3.60;99.90;;;;;;5015878;28;20045;-69
2024/01/10 01:06:43;;;;;;;17.87;11.17;;;-3.60;99.90;;;;;;5008272;28;20069;-69
2024/01/10 01:09:09;;;;;;;18.17;10.97;;;-3.70;99.90;;;;;;5012500;28;20100;-69
2024/01/10 01:11:34;;;;;;;19.70;11.97;;;-3.70;99.90;;;;;;5005316;28;20044;-69
2024/01/10 01:14:00;;;;;;;17.10;10.97;;;-3.70;99.90;;;;;;5009113;28;20042;-69
2024/01/10 01:16:25;;;;;;;19.00;11.73;;;-3.70;99.90;;;;;;5012161;28;20060;-69
2024/01/10 01:18:51;;;;;;;18.57;11.50;;;-3.70;99.90;;;;;;5013200;28;20081;-69
2024/01/10 01:21:17;;;;;;;17.30;11.43;;;-3.70;99.90;;;;;;5011881;28;20046;-69
2024/01/10 01:23:42;;;;;;;19.53;11.83;;;-3.70;99.90;;;;;;5013308;28;20042;-69
2024/01/10 01:26:08;;;;;;;16.77;11.13;;;-3.70;99.90;;;;;;5013051;28;20029;-69
2024/01/10 01:28:34;;;;;;;20.27;11.10;;;-3.70;99.90;;;;;;5013105;28;20042;-69
2024/01/10 01:30:59;;;;;;;16.67;11.23;;;-3.80;99.90;;;;;;5013166;28;20120;-69
2024/01/10 01:33:25;;;;;;;19.13;11.10;;;-3.80;99.90;;;;;;5013036;28;20149;-69
2024/01/10 01:35:51;;;;;;;19.53;12.23;;;-3.80;99.90;;;;;;5012689;28;20116;-69
2024/01/10 01:38:16;;;;;;;19.63;11.43;;;-3.80;99.90;;;;;;5005512;28;20107;-69
2024/01/10 01:40:42;;;;;;;19.50;11.20;;;-3.80;99.90;;;;;;5012999;28;20044;-69
2024/01/10 01:43:20;;;;;;;17.63;10.73;;;-3.80;99.90;;;;;;5012147;28;20038;-69
2024/01/10 01:45:46;;;;;;;21.90;12.13;;;-3.80;99.90;;;;;;5012787;28;20447;-69
2024/01/10 01:48:11;;;;;;;18.80;12.07;;;-3.80;99.90;;;;;;5012836;28;20042;-69
2024/01/10 01:50:37;;;;;;;20.90;11.67;;;-3.80;99.90;;;;;;5012557;28;20037;-69
2024/01/10 01:53:03;;;;;;;19.47;11.60;;;-3.80;99.90;;;;;;5014286;28;20388;-69
2024/01/10 01:55:29;;;;;;;21.67;12.27;;;-3.80;99.90;;;;;;5010980;28;20073;-69
2024/01/10 01:57:55;;;;;;;19.07;12.07;;;-3.80;99.90;;;;;;5012834;28;20034;-69
2024/01/10 02:00:21;;;;;;;19.93;12.20;;;-3.80;99.90;;;;;;5012858;28;20378;-69
2024/01/10 02:02:48;;;;;;;19.60;11.63;;;-3.80;99.90;;;;;;5012637;28;20081;-69
2024/01/10 02:05:15;;;;;;;18.10;12.43;;;-3.80;99.90;;;;;;5002862;28;20034;-69
2024/01/10 02:07:40;;;;;;;22.17;12.27;;;-3.80;99.90;;;;;;5005426;28;20412;-69
2024/01/10 02:10:07;;;;;;;23.10;13.17;;;-3.80;99.90;;;;;;5007999;28;20038;-69
2024/01/10 02:12:32;;;;;;;19.87;12.43;;;-3.80;99.90;;;;;;5014185;28;20038;-69
2024/01/10 02:14:59;;;;;;;21.43;12.53;;;-3.90;99.90;;;;;;5008521;28;20141;-69
2024/01/10 02:17:25;;;;;;;20.97;12.50;;;-3.90;99.90;;;;;;5002729;28;20116;-69
2024/01/10 02:20:10;;;;;;;20.57;12.33;;;-3.80;99.90;;;;;;5004624;28;20125;-69
2024/01/10 02:22:36;;;;;;;22.60;12.33;;;-3.90;99.90;;;;;;5004592;28;20042;-69
2024/01/10 02:25:03;;;;;;;19.63;12.07;;;-3.80;99.90;;;;;;5008553;28;20112;-69
2024/01/10 02:27:29;;;;;;;19.73;11.40;;;-3.90;99.90;;;;;;5009181;28;20117;-69
2024/01/10 02:29:56;;;;;;;22.03;11.10;;;-3.90;99.90;;;;;;5010913;28;20184;-69
2024/01/10 02:32:22;;;;;;;18.13;10.83;;;-3.90;99.90;;;;;;5018715;28;20111;-69
2024/01/10 02:34:47;;;;;;;17.70;11.37;;;-3.90;99.90;;;;;;5013626;28;20037;-69
2024/01/10 02:37:13;;;;;;;16.50;10.30;;;-4.00;99.90;;;;;;5009823;28;20554;-69
2024/01/10 02:39:38;;;;;;;19.30;12.00;;;-4.00;99.90;;;;;;5010742;28;20506;-69
2024/01/10 02:42:04;;;;;;;19.17;11.77;;;-4.00;99.90;;;;;;5010854;28;20416;-69
2024/01/10 02:44:30;;;;;;;18.47;11.37;;;-4.00;99.90;;;;;;5011230;28;20415;-69
2024/01/10 02:46:55;;;;;;;19.83;11.83;;;-4.00;99.90;;;;;;5006533;28;20034;-69
2024/01/10 02:49:21;;;;;;;18.60;12.00;;;-4.00;99.90;;;;;;5010835;28;20038;-69
2024/01/10 02:51:46;;;;;;;23.40;11.33;;;-4.00;99.90;;;;;;5016422;28;20071;-69
2024/01/10 02:54:12;;;;;;;18.73;11.63;;;-4.00;99.90;;;;;;5017518;28;20074;-69
2024/01/10 02:56:37;;;;;;;18.97;10.73;;;-4.00;99.90;;;;;;5010814;28;20080;-69
2024/01/10 02:59:03;;;;;;;17.97;11.07;;;-4.00;99.90;;;;;;5014081;28;20038;-69
2024/01/10 03:01:28;;;;;;;19.60;10.17;;;-4.00;99.90;;;;;;5005312;28;20973;-69
2024/01/10 03:03:54;;;;;;;16.97;9.83;;;-4.10;99.90;;;;;;5011034;28;20053;-69
2024/01/10 03:06:19;;;;;;;17.27;10.17;;;-4.00;99.90;;;;;;5003702;28;20046;-69
2024/01/10 03:08:45;;;;;;;17.43;10.40;;;-4.10;99.90;;;;;;5016658;28;20049;-69
2024/01/10 03:11:10;;;;;;;19.57;10.67;;;-4.00;99.90;;;;;;5011466;28;20038;-69
2024/01/10 03:13:37;;;;;;;16.80;10.17;;;-4.00;99.90;;;;;;5011910;28;20491;-69
2024/01/10 03:16:03;;;;;;;16.30;9.93;;;-4.10;99.90;;;;;;5010862;28;20042;-69
2024/01/10 03:18:29;;;;;;;21.23;10.50;;;-4.10;99.90;;;;;;5008724;28;20523;-69
2024/01/10 03:20:55;;;;;;;19.20;10.70;;;-4.10;99.90;;;;;;5011274;28;20034;-69
2024/01/10 03:23:21;;;;;;;19.23;10.77;;;-4.10;99.90;;;;;;5011244;28;20619;-69
2024/01/10 03:25:47;;;;;;;15.37;9.53;;;-4.10;99.90;;;;;;5009591;28;20049;-69
2024/01/10 03:28:17;;;;;;;16.53;9.47;;;-4.10;99.90;;;;;;5016273;28;20050;-69
2024/01/10 03:30:43;;;;;;;23.93;11.80;;;-4.10;99.90;;;;;;5010188;28;20050;-69
2024/01/10 03:33:09;;;;;;;19.83;12.27;;;-4.10;99.90;;;;;;5010422;28;20053;-69
2024/01/10 03:35:34;;;;;;;22.30;11.33;;;-4.10;99.90;;;;;;5014396;28;20556;-69
2024/01/10 03:38:00;;;;;;;20.53;12.73;;;-4.10;99.90;;;;;;5013278;28;20076;-69
2024/01/10 03:40:25;;;;;;;19.00;11.60;;;-4.20;99.90;;;;;;5010260;28;20111;-69
2024/01/10 03:42:51;;;;;;;21.90;12.77;;;-4.10;99.90;;;;;;5010793;28;20495;-69
2024/01/10 03:45:20;;;;;;;21.87;12.23;;;-4.10;99.90;;;;;;5010283;28;20052;-69
2024/01/10 03:47:49;;;;;;;22.93;13.07;;;-4.10;99.90;;;;;;5013047;28;20046;-69
2024/01/10 03:50:16;;;;;;;21.23;12.37;;;-4.10;99.90;;;;;;5003039;28;20056;-69
2024/01/10 03:52:42;;;;;;;24.77;14.23;;;-4.10;99.90;;;;;;4993941;28;20080;-69
2024/01/10 03:55:08;;;;;;;23.50;14.03;;;-4.10;99.90;;;;;;5006382;28;20034;-69
2024/01/10 03:57:34;;;;;;;21.37;12.87;;;-4.20;99.90;;;;;;5012184;28;20096;-69
2024/01/10 04:00:00;;;;;;;24.83;13.27;;;-4.10;99.90;;;;;;5009983;28;20508;-69
2024/01/10 04:02:27;;;;;;;23.83;13.73;;;-4.10;99.90;;;;;;5011392;28;20077;-69
2024/01/10 04:04:53;;;;;;;22.20;12.27;;;-4.10;99.90;;;;;;5003206;28;20408;-69
2024/01/10 04:07:19;;;;;;;20.40;12.63;;;-4.10;99.90;;;;;;5008066;28;20038;-69
2024/01/10 04:09:44;;;;;;;20.53;11.73;;;-4.10;99.90;;;;;;4992859;28;20057;-69
2024/01/10 04:12:10;;;;;;;21.60;12.83;;;-4.10;99.90;;;;;;5008231;28;20034;-69
2024/01/10 04:14:36;;;;;;;20.23;13.13;;;-4.20;99.90;;;;;;5001407;28;20572;-69
2024/01/10 04:17:03;;;;;;;23.97;12.20;;;-4.10;99.90;;;;;;5015295;28;20522;-69
2024/01/10 04:19:28;;;;;;;20.43;12.50;;;-4.20;99.90;;;;;;5014601;28;20077;-69
2024/01/10 04:21:54;;;;;;;21.10;12.40;;;-4.20;99.90;;;;;;5011268;28;20460;-69
2024/01/10 04:24:19;;;;;;;25.37;14.57;;;-4.20;99.90;;;;;;5006197;28;20298;-69
2024/01/10 04:26:45;;;;;;;23.13;13.47;;;-4.20;99.90;;;;;;5018478;28;20164;-69
2024/01/10 04:29:11;;;;;;;23.47;13.87;;;-4.20;99.90;;;;;;5017180;28;20088;-69
2024/01/10 04:31:37;;;;;;;27.37;14.00;;;-4.20;99.90;;;;;;5012975;28;20034;-69
2024/01/10 04:34:02;;;;;;;24.37;14.27;;;-4.20;99.90;;;;;;5014472;28;20068;-69
2024/01/10 04:36:28;;;;;;;23.13;13.27;;;-4.10;99.90;;;;;;5012818;28;20042;-69
2024/01/10 04:38:53;;;;;;;24.77;14.00;;;-4.20;99.90;;;;;;5012894;28;20116;-69
2024/01/10 04:41:19;;;;;;;21.57;12.37;;;-4.20;99.90;;;;;;5012210;28;20037;-69
2024/01/10 04:43:44;;;;;;;21.70;13.13;;;-4.20;99.90;;;;;;5015644;28;20037;-69
2024/01/10 04:46:10;;;;;;;22.97;12.93;;;-4.10;99.90;;;;;;5007507;28;20557;-69
2024/01/10 04:48:37;;;;;;;24.33;13.60;;;-4.20;99.90;;;;;;5014346;28;20125;-69
2024/01/10 04:51:02;;;;;;;22.50;12.97;;;-4.10;99.90;;;;;;5013765;28;20033;-69
2024/01/10 04:53:28;;;;;;;23.40;13.53;;;-4.20;99.90;;;;;;5012287;28;20065;-70
2024/01/10 04:55:54;;;;;;;26.10;14.63;;;-4.20;99.90;;;;;;5008060;28;20045;-69
2024/01/10 04:58:19;;;;;;;22.20;12.50;;;-4.20;99.90;;;;;;5008467;28;20068;-69
2024/01/10 05:00:45;;;;;;;22.10;13.30;;;-4.20;99.90;;;;;;5005377;28;20042;-69
2024/01/10 05:03:10;;;;;;;22.37;14.30;;;-4.20;99.90;;;;;;5003700;28;20041;-69
2024/01/10 05:05:36;;;;;;;25.97;13.27;;;-4.20;99.90;;;;;;5009128;28;20042;-69
2024/01/10 05:08:01;;;;;;;24.33;13.60;;;-4.30;99.90;;;;;;5008405;28;20419;-69
2024/01/10 05:10:27;;;;;;;25.90;13.90;;;-4.30;99.90;;;;;;5002924;28;20034;-69
2024/01/10 05:12:53;;;;;;;24.77;14.03;;;-4.30;99.90;;;;;;5009630;28;20040;-69
2024/01/10 05:15:19;;;;;;;24.57;14.53;;;-4.30;99.90;;;;;;5004824;28;20503;-69
2024/01/10 05:17:44;;;;;;;23.17;13.60;;;-4.30;99.90;;;;;;5008312;28;20041;-69
2024/01/10 05:20:10;;;;;;;22.43;12.43;;;-4.40;99.90;;;;;;5003083;28;20050;-69
2024/01/10 05:22:36;;;;;;;22.23;11.57;;;-4.40;99.90;;;;;;5005381;28;20052;-69
2024/01/10 05:25:02;;;;;;;21.97;13.17;;;-4.40;99.90;;;;;;5012309;28;20041;-69
2024/01/10 05:27:27;;;;;;;26.33;14.47;;;-4.40;99.90;;;;;;5013080;28;20037;-69
2024/01/10 05:29:53;;;;;;;21.40;12.77;;;-4.40;99.90;;;;;;5003511;28;20121;-69
2024/01/10 05:32:18;;;;;;;21.03;12.00;;;-4.40;99.90;;;;;;4996670;28;20049;-69
2024/01/10 05:34:44;;;;;;;22.50;12.93;;;-4.50;99.90;;;;;;5007981;28;20039;-69
2024/01/10 05:37:10;;;;;;;24.23;12.57;;;-4.40;99.90;;;;;;5003127;28;20080;-69
2024/01/10 05:39:36;;;;;;;24.83;13.47;;;-4.50;99.90;;;;;;5011735;28;20484;-69
2024/01/10 05:42:02;;;;;;;18.33;11.67;;;-4.40;99.90;;;;;;5011312;28;20054;-69
2024/01/10 05:44:29;;;;;;;21.00;12.43;;;-4.40;99.90;;;;;;5002899;28;20096;-69
2024/01/10 05:46:54;;;;;;;22.17;11.97;;;-4.50;99.90;;;;;;5006622;28;20042;-69
2024/01/10 05:49:20;;;;;;;24.63;14.60;;;-4.50;99.90;;;;;;5020342;28;20112;-69
2024/01/10 05:51:47;;;;;;;22.80;13.33;;;-4.50;99.90;;;;;;5002718;28;20038;-69
2024/01/10 05:54:13;;;;;;;23.60;13.20;;;-4.50;99.90;;;;;;5008327;28;20040;-69
2024/01/10 05:56:38;;;;;;;22.57;12.77;;;-4.50;99.90;;;;;;5008343;28;20542;-69
2024/01/10 05:59:04;;;;;;;22.20;13.50;;;-4.50;99.90;;;;;;5004142;28;20045;-70
2024/01/10 06:01:29;;;;;;;24.57;14.43;;;-4.50;99.90;;;;;;5000759;28;20038;-69
2024/01/10 06:03:56;;;;;;;25.83;13.73;;;-4.50;99.90;;;;;;5000709;28;20038;-69
2024/01/10 06:06:21;;;;;;;25.90;15.00;;;-4.50;99.90;;;;;;4995903;28;20403;-69
2024/01/10 06:08:47;;;;;;;26.80;13.47;;;-4.40;99.90;;;;;;4995822;28;20038;-70
2024/01/10 06:11:13;;;;;;;24.80;13.47;;;-4.40;99.90;;;;;;4999541;28;20041;-69
2024/01/10 06:13:38;;;;;;;26.90;15.10;;;-4.40;99.90;;;;;;5009556;28;20046;-69
2024/01/10 06:16:04;;;;;;;32.43;15.23;;;-4.50;99.90;;;;;;5003810;28;20049;-69
2024/01/10 06:18:30;;;;;;;29.03;15.83;;;-4.50;99.90;;;;;;5011405;28;20167;-69
2024/01/10 06:20:55;;;;;;;26.77;15.13;;;-4.50;99.90;;;;;;5005997;28;20133;-69
2024/01/10 06:23:21;;;;;;;30.33;15.77;;;-4.40;99.90;;;;;;5006045;28;20042;-69
2024/01/10 06:25:46;;;;;;;29.83;15.37;;;-4.40;99.90;;;;;;5005160;28;20042;-69
2024/01/10 06:28:12;;;;;;;24.83;15.27;;;-4.40;99.90;;;;;;5006746;28;20046;-69
2024/01/10 06:30:37;;;;;;;31.83;17.90;;;-4.50;99.90;;;;;;5011321;28;20034;-69
2024/01/10 06:33:06;;;;;;;30.00;16.30;;;-4.40;99.90;;;;;;5005870;28;20041;-69
2024/01/10 06:35:32;;;;;;;30.43;16.13;;;-4.40;99.90;;;;;;5007605;28;20046;-69
2024/01/10 06:37:57;;;;;;;28.83;16.03;;;-4.50;99.90;;;;;;5007469;28;20495;-69
2024/01/10 06:40:23;;;;;;;30.33;16.23;;;-4.50;99.90;;;;;;5004527;28;20037;-69
2024/01/10 06:42:48;;;;;;;31.30;15.90;;;-4.50;99.90;;;;;;5009886;28;20112;-69
2024/01/10 06:45:14;;;;;;;34.07;15.73;;;-4.50;99.90;;;;;;5003223;28;20079;-69
2024/01/10 06:47:40;;;;;;;28.17;15.57;;;-4.50;99.90;;;;;;5000126;28;20733;-69
2024/01/10 06:50:06;;;;;;;29.53;15.57;;;-4.50;99.90;;;;;;5008907;28;20057;-69
2024/01/10 06:52:31;;;;;;;24.37;14.60;;;-4.50;99.90;;;;;;5015244;28;20119;-69
2024/01/10 06:54:57;;;;;;;27.83;16.07;;;-4.50;99.90;;;;;;5008708;28;20480;-69
2024/01/10 06:57:23;;;;;;;31.00;17.50;;;-4.40;99.90;;;;;;5003545;28;20519;-69
2024/01/10 06:59:49;;;;;;;31.33;17.17;;;-4.50;99.90;;;;;;5002914;28;20511;-69
2024/01/10 07:02:15;;;;;;;31.90;16.20;;;-4.50;99.90;;;;;;5000334;28;20484;-69
2024/01/10 07:04:40;;;;;;;31.53;17.30;;;-4.50;99.90;;;;;;5004451;28;20687;-69
2024/01/10 07:07:08;;;;;;;31.40;16.67;;;-4.50;99.90;;;;;;5002976;28;20053;-69
2024/01/10 07:09:34;;;;;;;25.33;14.00;;;-4.50;99.90;;;;;;4999282;28;20042;-69
2024/01/10 07:11:59;;;;;;;31.37;15.30;;;-4.50;99.90;;;;;;5003936;28;20030;-69
2024/01/10 07:14:25;;;;;;;24.13;13.70;;;-4.50;99.90;;;;;;5002745;28;20546;-69
2024/01/10 07:16:51;;;;;;;30.73;16.90;;;-4.50;99.90;;;;;;5006631;28;20053;-69
2024/01/10 07:19:17;;;;;;;29.53;16.10;;;-4.50;99.90;;;;;;5005600;28;20058;-69
2024/01/10 07:21:43;;;;;;;27.63;16.53;;;-4.50;99.90;;;;;;5002416;28;20391;-69
2024/01/10 07:24:09;;;;;;;31.03;16.53;;;-4.50;99.90;;;;;;5000865;28;20074;-69
2024/01/10 07:26:36;;;;;;;29.63;15.30;;;-4.50;99.90;;;;;;4997593;28;20218;-69
2024/01/10 07:29:02;;;;;;;24.00;14.47;;;-4.40;99.90;;;;;;4995492;28;20040;-69
2024/01/10 07:31:29;;;;;;;29.50;16.27;;;-4.40;99.90;;;;;;5004823;28;20083;-69
2024/01/10 07:33:56;;;;;;;29.03;16.30;;;-4.40;99.90;;;;;;5000138;28;20034;-69
2024/01/10 07:36:29;;;;;;;27.07;16.43;;;-4.40;99.90;;;;;;5004101;28;20111;-69
2024/01/10 07:38:58;;;;;;;27.77;15.57;;;-4.40;99.90;;;;;;5008000;28;20048;-69
2024/01/10 07:41:24;;;;;;;24.63;12.93;;;-4.40;99.90;;;;;;5000016;28;20051;-69
2024/01/10 07:43:49;;;;;;;30.77;17.00;;;-4.40;99.90;;;;;;5007739;28;20476;-69
2024/01/10 07:46:15;;;;;;;25.67;15.13;;;-4.30;99.90;;;;;;5000546;28;20081;-69
2024/01/10 07:48:40;;;;;;;28.13;15.50;;;-4.40;99.90;;;;;;5007826;28;20095;-69
2024/01/10 07:51:06;;;;;;;26.17;14.43;;;-4.40;99.90;;;;;;5001079;28;20034;-69
2024/01/10 07:53:33;;;;;;;22.63;13.23;;;-4.40;99.90;;;;;;5008727;28;20124;-69
2024/01/10 07:55:59;;;;;;;20.60;11.53;;;-4.40;99.90;;;;;;5005795;28;20038;-69
2024/01/10 07:58:24;;;;;;;23.53;13.70;;;-4.40;99.90;;;;;;5005505;28;20030;-69
2024/01/10 08:00:51;;;;;;;24.60;15.00;;;-4.40;99.90;;;;;;5004685;28;20099;-69
2024/01/10 08:03:16;;;;;;;25.63;15.63;;;-4.40;99.90;;;;;;4998883;28;20041;-69
2024/01/10 08:05:43;;;;;;;27.80;15.60;;;-4.40;99.90;;;;;;5009351;28;20488;-69
2024/01/10 08:08:09;;;;;;;30.50;17.73;;;-4.40;99.90;;;;;;5006669;28;20038;-69
2024/01/10 08:10:34;;;;;;;29.83;16.70;;;-4.30;99.90;;;;;;4999128;28;20451;-69
2024/01/10 08:13:00;;;;;;;29.03;16.93;;;-4.30;99.90;;;;;;5005524;28;20042;-69
2024/01/10 08:15:26;;;;;;;27.97;16.07;;;-4.30;99.90;;;;;;4997431;28;20033;-69
2024/01/10 08:17:51;;;;;;;27.30;15.97;;;-4.30;99.90;;;;;;5003394;28;20038;-69
2024/01/10 08:20:20;;;;;;;29.60;17.23;;;-4.20;99.90;;;;;;5001438;28;20081;-69
2024/01/10 08:22:47;;;;;;;26.73;15.67;;;-4.20;99.90;;;;;;5013156;28;20563;-69
2024/01/10 08:25:15;;;;;;;27.67;15.80;;;-4.20;99.90;;;;;;5010888;28;20038;-69
2024/01/10 08:27:41;;;;;;;27.03;15.10;;;-4.20;99.90;;;;;;4997284;28;20053;-69
2024/01/10 08:30:09;;;;;;;29.60;17.30;;;-4.20;99.90;;;;;;5013084;28;20069;-69
2024/01/10 08:32:36;;;;;;;25.60;15.87;;;-4.20;99.90;;;;;;5003006;28;20041;-69
2024/01/10 08:35:05;;;;;;;24.90;14.43;;;-4.10;99.90;;;;;;5007099;28;20385;-69
2024/01/10 08:37:30;;;;;;;23.63;14.80;;;-4.10;99.90;;;;;;5001618;28;20496;-69
2024/01/10 08:39:57;;;;;;;26.90;13.97;;;-4.10;99.90;;;;;;5010863;28;20034;-69
2024/01/10 08:42:22;;;;;;;20.10;13.13;;;-4.00;99.90;;;;;;5010935;28;20508;-69
2024/01/10 08:44:49;;;;;;;25.20;15.20;;;-4.10;99.90;;;;;;5015476;28;20084;-69
2024/01/10 08:47:15;;;;;;;24.00;14.47;;;-4.00;99.90;;;;;;5011528;28;20038;-69
2024/01/10 08:49:40;;;;;;;25.33;13.37;;;-4.00;99.90;;;;;;5013852;28;20042;-69
2024/01/10 08:52:06;;;;;;;24.03;12.67;;;-3.90;99.90;;;;;;5011987;28;20091;-69
2024/01/10 08:54:31;;;;;;;23.50;14.23;;;-3.90;99.90;;;;;;5012017;28;20092;-69
2024/01/10 08:56:58;;;;;;;19.83;13.67;;;-3.80;99.90;;;;;;5008621;28;20447;-69
2024/01/10 08:59:24;;;;;;;20.53;13.60;;;-3.80;99.90;;;;;;5008717;28;20042;-69
2024/01/10 09:01:49;;;;;;;19.53;13.30;;;-3.80;99.90;;;;;;5002740;28;20047;-69
2024/01/10 09:04:15;;;;;;;27.03;15.07;;;-3.70;99.90;;;;;;5000153;28;20045;-69
2024/01/10 09:06:40;;;;;;;26.07;14.53;;;-3.70;99.90;;;;;;5001387;28;20065;-69
2024/01/10 09:09:06;;;;;;;22.37;13.30;;;-3.70;99.90;;;;;;4979860;28;20085;-69
2024/01/10 09:11:32;;;;;;;23.07;13.73;;;-3.60;99.90;;;;;;5002023;28;20077;-69
2024/01/10 09:13:59;;;;;;;21.50;12.73;;;-3.60;99.90;;;;;;5002584;28;20044;-69
2024/01/10 09:16:24;;;;;;;25.37;13.77;;;-3.50;99.90;;;;;;5025176;28;20045;-69
2024/01/10 09:18:53;;;;;;;24.07;13.17;;;-3.50;99.90;;;;;;5012476;28;20137;-69
2024/01/10 09:21:20;;;;;;;20.87;12.60;;;-3.40;99.90;;;;;;5005924;28;20037;-69
2024/01/10 09:23:47;;;;;;;25.73;15.17;;;-3.40;99.90;;;;;;5012695;28;20132;-69
2024/01/10 09:26:13;;;;;;;24.83;13.23;;;-3.30;99.90;;;;;;5012042;28;20072;-68
2024/01/10 09:28:40;;;;;;;21.57;12.90;;;-3.20;99.90;;;;;;5017363;28;20042;-68
2024/01/10 09:31:07;;;;;;;23.97;14.63;;;-3.10;99.90;;;;;;5013366;28;20129;-68
2024/01/10 09:33:33;;;;;;;21.17;13.63;;;-3.10;99.90;;;;;;5012124;28;20033;-68
2024/01/10 09:35:59;;;;;;;22.17;10.77;;;-2.90;99.90;;;;;;5011019;28;20353;-69
2024/01/10 09:38:25;;;;;;;22.63;12.17;;;-2.90;99.90;;;;;;5005351;28;20049;-69
2024/01/10 09:40:56;;;;;;;19.80;13.00;;;-2.80;99.90;;;;;;5003753;28;20559;-69
2024/01/10 09:43:22;;;;;;;21.88;12.35;;;-2.80;99.90;;;;;;5006779;28;20045;-69
2024/01/10 09:45:49;;;;;;;20.33;12.97;;;-2.70;99.90;;;;;;5011177;28;20400;-69
2024/01/10 09:48:15;;;;;;;19.60;12.30;;;-2.70;99.90;;;;;;5009988;28;20563;-69
2024/01/10 09:50:41;;;;;;;18.10;11.70;;;-2.70;99.90;;;;;;5016319;28;20345;-69
2024/01/10 09:53:07;;;;;;;19.50;12.73;;;-2.60;99.90;;;;;;5023794;28;20034;-70
2024/01/10 09:55:37;;;;;;;22.40;11.77;;;-2.60;99.90;;;;;;5005875;28;20587;-69
2024/01/10 09:58:08;;;;;;;21.70;12.20;;;-2.50;99.90;;;;;;5004082;28;20436;-69
2024/01/10 10:00:35;;;;;;;21.88;12.88;;;-2.50;99.90;;;;;;4996983;28;20046;-69
2024/01/10 10:03:04;;;;;;;22.27;13.33;;;-2.50;99.90;;;;;;5009593;28;20520;-69
2024/01/10 10:05:30;;;;;;;21.30;11.50;;;-2.40;99.90;;;;;;5004067;28;20426;-70
2024/01/10 10:07:57;;;;;;;22.77;12.80;;;-2.30;99.90;;;;;;4983313;28;20034;-69
2024/01/10 10:10:23;;;;;;;22.77;13.67;;;-2.30;99.90;;;;;;5000003;28;20117;-69
2024/01/10 10:12:56;;;;;;;22.38;11.95;;;-2.30;99.90;;;;;;5011069;28;20177;-70
2024/01/10 10:15:23;;;;;;;22.13;13.03;;;-2.20;99.90;;;;;;5008769;28;20065;-70
2024/01/10 10:17:50;;;;;;;18.40;11.07;;;-2.10;99.90;;;;;;5005472;28;20092;-70
2024/01/10 10:20:24;;;;;;;18.13;10.47;;;-2.10;99.90;;;;;;5008770;28;20053;-69
2024/01/10 10:23:12;;;;;;;18.07;10.70;;;-2.10;99.90;;;;;;5008077;28;20488;-69
2024/01/10 10:25:43;;;;;;;16.05;9.25;;;-2.10;99.90;;;;;;5009386;28;20081;-69
2024/01/10 10:28:08;;;;;;;18.60;10.43;;;-2.00;99.90;;;;;;5010636;28;20373;-69
2024/01/10 10:30:34;;;;;;;18.20;11.10;;;-2.00;99.90;;;;;;5011928;28;20045;-69
2024/01/10 10:33:01;;;;;;;18.65;11.10;;;-2.00;99.90;;;;;;5007479;28;20074;-69
2024/01/10 10:35:26;;;;;;;13.73;8.60;;;-2.00;99.90;;;;;;5011314;28;20084;-69
2024/01/10 10:37:52;;;;;;;15.00;9.83;;;-2.00;99.90;;;;;;4994465;28;20073;-70
2024/01/10 10:40:19;;;;;;;16.20;9.47;;;-1.90;99.90;;;;;;5011715;28;20511;-70
2024/01/10 10:42:51;;;;;;;16.40;9.63;;;-1.90;99.90;;;;;;5008986;28;20038;-70
2024/01/10 10:45:19;;;;;;;16.70;8.60;;;-1.80;99.90;;;;;;5005072;28;20100;-70
2024/01/10 10:47:46;;;;;;;18.77;9.25;;;-1.80;99.90;;;;;;5006593;28;20430;-70
2024/01/10 10:50:23;;;;;;;17.50;10.10;;;-1.80;99.90;;;;;;5010183;28;20037;-69
2024/01/10 10:52:50;;;;;;;18.63;10.23;;;-1.70;99.90;;;;;;5000261;28;20049;-69
2024/01/10 10:55:17;;;;;;;17.10;8.82;;;-1.70;99.90;;;;;;4994222;28;20049;-69
2024/01/10 10:57:47;;;;;;;14.73;8.90;;;-1.70;99.90;;;;;;5003610;28;20871;-69
2024/01/10 11:00:18;;;;;;;16.02;9.07;;;-1.60;99.90;;;;;;5002123;28;20034;-69
2024/01/10 11:02:45;;;;;;;16.42;8.82;;;-1.60;99.90;;;;;;5007282;28;20507;-69
2024/01/10 11:05:11;;;;;;;17.80;9.70;;;-1.60;99.90;;;;;;5009521;28;20041;-69
2024/01/10 11:07:41;;;;;;;15.80;9.27;;;-1.50;99.90;;;;;;5009290;28;20046;-69
2024/01/10 11:10:16;;;;;;;14.98;8.63;;;-1.50;99.90;;;;;;5008806;28;20037;-70
2024/01/10 11:13:06;;;;;;;16.02;8.95;;;-1.50;99.90;;;;;;5004646;28;20092;-69
2024/01/10 11:15:44;;;;;;;12.80;7.68;;;-1.50;99.90;;;;;;5004027;28;20695;-69
2024/01/10 11:18:39;;;;;;;14.80;8.27;;;-1.40;99.90;;;;;;5008361;28;20046;-70
2024/01/10 11:21:35;;;;;;;15.65;8.23;;;-1.40;99.90;;;;;;5006079;28;20068;-69
2024/01/10 11:24:01;;;;;;;18.65;9.10;;;-1.30;99.90;;;;;;5016407;28;20504;-69
2024/01/10 11:26:27;;;;;;;20.55;9.15;;;-1.20;99.90;;;;;;5026803;28;20411;-70
2024/01/10 11:28:53;;;;;;;16.73;9.65;;;-1.20;99.90;;;;;;5016345;28;20050;-70
2024/01/10 11:31:31;;;;;;;16.20;9.15;;;-1.20;99.90;;;;;;5015001;28;20044;-69
2024/01/10 11:33:58;;;;;;;15.65;8.43;;;-1.20;99.90;;;;;;5006543;28;20046;-69
2024/01/10 11:36:27;;;;;;;16.92;7.82;;;-1.20;99.90;;;;;;5005081;28;20040;-70
2024/01/10 11:38:56;;;;;;;15.88;8.13;;;-1.10;99.90;;;;;;5007426;28;20096;-70
2024/01/10 11:41:29;;;;;;;16.58;8.95;;;-1.10;99.90;;;;;;5015956;28;20041;-69
2024/01/10 11:44:10;;;;;;;18.23;9.73;;;-1.10;99.90;;;;;;5011574;28;20113;-69
2024/01/10 11:46:45;;;;;;;17.15;8.98;;;-1.00;99.90;;;;;;5009439;28;20492;-69
2024/01/10 11:49:13;;;;;;;18.05;9.35;;;-1.00;99.90;;;;;;5012560;28;20093;-69
2024/01/10 11:51:41;;;;;;;20.95;9.30;;;-1.00;99.90;;;;;;5021918;28;20124;-69
2024/01/10 11:54:07;;;;;;;17.45;8.30;;;-1.00;99.90;;;;;;5012104;28;20037;-69
2024/01/10 11:56:41;;;;;;;14.00;7.63;;;-0.90;99.90;;;;;;5017977;28;20044;-69
2024/01/10 11:59:08;;;;;;;19.65;8.40;;;-0.90;99.90;;;;;;5012348;28;20522;-69
2024/01/10 12:01:36;;;;;;;17.20;9.70;;;-0.90;99.90;;;;;;5014360;28;20045;-69
2024/01/10 12:04:03;;;;;;;15.20;8.10;;;-0.80;99.90;;;;;;5013384;28;20476;-69
2024/01/10 12:06:29;;;;;;;15.98;7.65;;;-0.80;99.90;;;;;;5015305;28;20120;-69
2024/01/10 12:08:55;;;;;;;16.55;7.93;;;-0.80;99.90;;;;;;5012940;28;20034;-69
2024/01/10 12:11:21;;;;;;;17.83;8.80;;;-0.70;99.90;;;;;;5010459;28;20029;-69
2024/01/10 12:13:47;;;;;;;14.85;7.80;;;-0.70;99.90;;;;;;5008973;28;20042;-69
2024/01/10 12:18:45;;;;;;;17.75;7.93;;;-0.60;99.90;;;;;;5052161;28;20099;-68
2024/01/10 12:21:12;;;;;;;14.95;7.22;;;-0.60;99.90;;;;;;5057299;28;20033;-67
2024/01/10 12:23:38;;;;;;;14.57;8.38;;;-0.60;99.90;;;;;;5049898;28;20040;-67
2024/01/10 12:26:13;;;;;;;15.43;7.65;;;-0.60;99.90;;;;;;5053629;28;20033;-67
2024/01/10 12:28:39;;;;;;;16.60;8.95;;;-0.50;99.90;;;;;;5050363;28;20039;-68